sensor_id;sensor_type;location;lat;lon;timestamp;pressure;altitude;pressure_sealevel;temperature;humidity
66479;BME280;53294;47.912;13.526;2023-05-03T00:01:20;96816.88;;;12.52;66.80
66479;BME280;53294;47.912;13.526;2023-05-03T00:03:51;96816.59;;;12.53;66.83
66479;BME280;53294;47.912;13.526;2023-05-03T00:06:17;96812.03;;;12.54;66.79
66479;BME280;53294;47.912;13.526;2023-05-03T00:08:45;96818.50;;;12.53;67.04
66479;BME280;53294;47.912;13.526;2023-05-03T00:11:12;96817.56;;;12.44;67.08
66479;BME280;53294;47.912;13.526;2023-05-03T00:13:38;96817.75;;;12.47;67.17
66479;BME280;53294;47.912;13.526;2023-05-03T00:16:05;96813.41;;;12.51;66.83
66479;BME280;53294;47.912;13.526;2023-05-03T00:18:32;96816.31;;;12.55;66.72
66479;BME280;53294;47.912;13.526;2023-05-03T00:20:58;96813.03;;;12.39;67.36
66479;BME280;53294;47.912;13.526;2023-05-03T00:23:26;96806.84;;;12.38;67.39
66479;BME280;53294;47.912;13.526;2023-05-03T00:25:57;96810.63;;;12.37;67.53
66479;BME280;53294;47.912;13.526;2023-05-03T00:28:24;96811.78;;;12.31;67.75
66479;BME280;53294;47.912;13.526;2023-05-03T00:30:51;96813.81;;;12.39;67.33
66479;BME280;53294;47.912;13.526;2023-05-03T00:33:18;96810.56;;;12.43;67.30
66479;BME280;53294;47.912;13.526;2023-05-03T00:35:45;96807.28;;;12.46;67.25
66479;BME280;53294;47.912;13.526;2023-05-03T00:38:12;96801.88;;;12.46;67.00
66479;BME280;53294;47.912;13.526;2023-05-03T00:40:40;96809.38;;;12.49;67.02
66479;BME280;53294;47.912;13.526;2023-05-03T00:43:10;96807.50;;;12.49;67.09
66479;BME280;53294;47.912;13.526;2023-05-03T00:45:37;96811.00;;;12.50;66.94
66479;BME280;53294;47.912;13.526;2023-05-03T00:48:04;96806.09;;;12.52;67.05
66479;BME280;53294;47.912;13.526;2023-05-03T00:50:31;96809.91;;;12.51;66.88
66479;BME280;53294;47.912;13.526;2023-05-03T00:52:58;96798.91;;;12.47;66.95
66479;BME280;53294;47.912;13.526;2023-05-03T00:55:27;96801.97;;;12.41;67.14
66479;BME280;53294;47.912;13.526;2023-05-03T00:57:54;96802.69;;;12.27;67.62
66479;BME280;53294;47.912;13.526;2023-05-03T01:00:21;96799.56;;;12.20;68.21
66479;BME280;53294;47.912;13.526;2023-05-03T01:02:49;96806.03;;;12.19;68.09
66479;BME280;53294;47.912;13.526;2023-05-03T01:05:16;96797.28;;;12.27;67.84
66479;BME280;53294;47.912;13.526;2023-05-03T01:08:08;96800.53;;;12.29;67.68
66479;BME280;53294;47.912;13.526;2023-05-03T01:15:55;96797.53;;;11.88;69.72
66479;BME280;53294;47.912;13.526;2023-05-03T01:18:29;96801.59;;;11.37;72.26
66479;BME280;53294;47.912;13.526;2023-05-03T01:20:59;96802.63;;;10.82;75.59
66479;BME280;53294;47.912;13.526;2023-05-03T01:25:59;96799.69;;;11.13;73.51
66479;BME280;53294;47.912;13.526;2023-05-03T01:28:26;96795.47;;;11.55;71.05
66479;BME280;53294;47.912;13.526;2023-05-03T01:30:53;96792.03;;;11.74;70.29
66479;BME280;53294;47.912;13.526;2023-05-03T01:33:44;96793.88;;;12.02;69.31
66479;BME280;53294;47.912;13.526;2023-05-03T01:36:22;96784.84;;;11.93;69.26
66479;BME280;53294;47.912;13.526;2023-05-03T01:38:52;96788.84;;;11.72;70.27
66479;BME280;53294;47.912;13.526;2023-05-03T01:41:20;96794.69;;;11.55;71.12
66479;BME280;53294;47.912;13.526;2023-05-03T01:43:49;96789.53;;;11.82;69.78
66479;BME280;53294;47.912;13.526;2023-05-03T01:46:17;96791.25;;;11.97;69.41
66479;BME280;53294;47.912;13.526;2023-05-03T01:48:43;96789.09;;;11.99;69.10
66479;BME280;53294;47.912;13.526;2023-05-03T01:51:10;96797.66;;;12.01;69.18
66479;BME280;53294;47.912;13.526;2023-05-03T01:53:37;96798.09;;;12.09;68.79
66479;BME280;53294;47.912;13.526;2023-05-03T01:56:04;96797.28;;;12.08;68.88
66479;BME280;53294;47.912;13.526;2023-05-03T01:58:30;96798.44;;;12.02;69.25
66479;BME280;53294;47.912;13.526;2023-05-03T02:00:57;96797.16;;;11.99;69.11
66479;BME280;53294;47.912;13.526;2023-05-03T02:03:24;96802.81;;;11.98;69.17
66479;BME280;53294;47.912;13.526;2023-05-03T02:05:50;96802.47;;;12.05;69.04
66479;BME280;53294;47.912;13.526;2023-05-03T02:08:17;96801.31;;;12.11;68.81
66479;BME280;53294;47.912;13.526;2023-05-03T02:10:43;96792.38;;;12.15;68.40
66479;BME280;53294;47.912;13.526;2023-05-03T02:13:10;96793.16;;;12.16;68.56
66479;BME280;53294;47.912;13.526;2023-05-03T02:15:37;96794.97;;;12.20;68.31
66479;BME280;53294;47.912;13.526;2023-05-03T02:18:04;96787.63;;;12.26;68.13
66479;BME280;53294;47.912;13.526;2023-05-03T02:20:30;96793.59;;;12.23;68.31
66479;BME280;53294;47.912;13.526;2023-05-03T02:23:02;96797.81;;;12.29;68.25
66479;BME280;53294;47.912;13.526;2023-05-03T02:25:29;96795.44;;;12.28;68.23
66479;BME280;53294;47.912;13.526;2023-05-03T02:27:56;96790.03;;;12.28;68.12
66479;BME280;53294;47.912;13.526;2023-05-03T02:30:22;96794.59;;;12.27;68.07
66479;BME280;53294;47.912;13.526;2023-05-03T02:32:49;96791.84;;;12.32;67.87
66479;BME280;53294;47.912;13.526;2023-05-03T02:35:16;96796.22;;;12.28;68.07
66479;BME280;53294;47.912;13.526;2023-05-03T02:37:42;96792.34;;;12.34;67.84
66479;BME280;53294;47.912;13.526;2023-05-03T02:40:09;96793.88;;;12.02;69.42
66479;BME280;53294;47.912;13.526;2023-05-03T02:42:36;96794.88;;;12.07;69.20
66479;BME280;53294;47.912;13.526;2023-05-03T02:45:03;96789.38;;;12.17;68.65
66479;BME280;53294;47.912;13.526;2023-05-03T02:47:30;96789.75;;;12.29;68.14
66479;BME280;53294;47.912;13.526;2023-05-03T02:49:57;96787.06;;;12.29;68.05
66479;BME280;53294;47.912;13.526;2023-05-03T02:52:23;96791.63;;;12.29;68.22
66479;BME280;53294;47.912;13.526;2023-05-03T02:54:50;96783.50;;;12.34;67.78
66479;BME280;53294;47.912;13.526;2023-05-03T02:57:17;96783.25;;;12.30;68.21
66479;BME280;53294;47.912;13.526;2023-05-03T02:59:43;96783.41;;;12.20;68.70
66479;BME280;53294;47.912;13.526;2023-05-03T03:02:10;96782.47;;;12.30;68.18
66479;BME280;53294;47.912;13.526;2023-05-03T03:04:36;96793.44;;;12.33;68.07
66479;BME280;53294;47.912;13.526;2023-05-03T03:07:03;96780.50;;;12.35;67.92
66479;BME280;53294;47.912;13.526;2023-05-03T03:09:30;96783.19;;;12.35;68.04
66479;BME280;53294;47.912;13.526;2023-05-03T03:11:59;96785.06;;;12.35;68.12
66479;BME280;53294;47.912;13.526;2023-05-03T03:14:29;96790.25;;;12.31;68.16
66479;BME280;53294;47.912;13.526;2023-05-03T03:17:00;96786.38;;;12.37;67.88
66479;BME280;53294;47.912;13.526;2023-05-03T03:19:28;96791.19;;;12.41;67.71
66479;BME280;53294;47.912;13.526;2023-05-03T03:21:55;96791.47;;;12.39;67.88
66479;BME280;53294;47.912;13.526;2023-05-03T03:24:22;96794.25;;;12.34;67.86
66479;BME280;53294;47.912;13.526;2023-05-03T03:26:48;96791.28;;;12.35;67.68
66479;BME280;53294;47.912;13.526;2023-05-03T03:29:15;96794.97;;;12.20;68.44
66479;BME280;53294;47.912;13.526;2023-05-03T03:31:42;96786.19;;;12.34;67.81
66479;BME280;53294;47.912;13.526;2023-05-03T03:34:10;96785.88;;;12.35;67.65
66479;BME280;53294;47.912;13.526;2023-05-03T03:36:37;96793.69;;;12.37;67.64
66479;BME280;53294;47.912;13.526;2023-05-03T03:39:05;96789.09;;;12.37;67.66
66479;BME280;53294;47.912;13.526;2023-05-03T03:41:32;96788.78;;;12.39;67.46
66479;BME280;53294;47.912;13.526;2023-05-03T03:43:59;96791.84;;;12.32;67.99
66479;BME280;53294;47.912;13.526;2023-05-03T03:46:26;96800.66;;;12.38;67.71
66479;BME280;53294;47.912;13.526;2023-05-03T03:48:52;96794.47;;;12.37;67.69
66479;BME280;53294;47.912;13.526;2023-05-03T03:51:19;96788.00;;;12.38;67.67
66479;BME280;53294;47.912;13.526;2023-05-03T03:53:46;96796.28;;;12.42;67.42
66479;BME280;53294;47.912;13.526;2023-05-03T03:56:12;96793.00;;;12.45;67.17
66479;BME280;53294;47.912;13.526;2023-05-03T03:58:39;96796.59;;;12.41;67.46
66479;BME280;53294;47.912;13.526;2023-05-03T04:01:06;96797.44;;;12.36;67.57
66479;BME280;53294;47.912;13.526;2023-05-03T04:03:32;96795.25;;;12.38;67.60
66479;BME280;53294;47.912;13.526;2023-05-03T04:05:59;96801.47;;;12.38;67.55
66479;BME280;53294;47.912;13.526;2023-05-03T04:08:26;96800.94;;;12.36;67.77
66479;BME280;53294;47.912;13.526;2023-05-03T04:10:53;96806.03;;;12.38;67.93
66479;BME280;53294;47.912;13.526;2023-05-03T04:13:19;96801.97;;;12.41;67.80
66479;BME280;53294;47.912;13.526;2023-05-03T04:15:46;96804.09;;;12.44;67.71
66479;BME280;53294;47.912;13.526;2023-05-03T04:18:12;96805.69;;;12.45;67.62
66479;BME280;53294;47.912;13.526;2023-05-03T04:20:39;96806.47;;;12.45;67.66
66479;BME280;53294;47.912;13.526;2023-05-03T04:23:06;96812.91;;;12.49;67.33
66479;BME280;53294;47.912;13.526;2023-05-03T04:25:32;96816.97;;;12.47;67.42
66479;BME280;53294;47.912;13.526;2023-05-03T04:27:59;96808.88;;;12.47;67.40
66479;BME280;53294;47.912;13.526;2023-05-03T04:30:26;96819.22;;;12.39;67.61
66479;BME280;53294;47.912;13.526;2023-05-03T04:32:52;96819.22;;;12.39;67.70
66479;BME280;53294;47.912;13.526;2023-05-03T04:35:20;96815.44;;;12.41;67.78
66479;BME280;53294;47.912;13.526;2023-05-03T04:37:47;96821.84;;;12.45;67.56
66479;BME280;53294;47.912;13.526;2023-05-03T04:40:14;96823.22;;;12.42;67.64
66479;BME280;53294;47.912;13.526;2023-05-03T04:42:42;96824.03;;;12.43;67.83
66479;BME280;53294;47.912;13.526;2023-05-03T04:45:09;96824.84;;;12.43;67.88
66479;BME280;53294;47.912;13.526;2023-05-03T04:47:36;96831.16;;;12.33;68.07
66479;BME280;53294;47.912;13.526;2023-05-03T04:50:03;96828.41;;;12.38;67.84
66479;BME280;53294;47.912;13.526;2023-05-03T04:52:30;96834.59;;;12.39;67.75
66479;BME280;53294;47.912;13.526;2023-05-03T04:54:57;96833.34;;;12.31;68.01
66479;BME280;53294;47.912;13.526;2023-05-03T04:57:23;96835.47;;;12.34;68.09
66479;BME280;53294;47.912;13.526;2023-05-03T04:59:50;96839.22;;;12.33;68.11
66479;BME280;53294;47.912;13.526;2023-05-03T05:02:19;96847.50;;;12.18;68.73
66479;BME280;53294;47.912;13.526;2023-05-03T05:04:47;96836.63;;;12.28;68.12
66479;BME280;53294;47.912;13.526;2023-05-03T05:07:14;96837.56;;;12.37;68.00
66479;BME280;53294;47.912;13.526;2023-05-03T05:09:40;96845.38;;;12.39;68.13
66479;BME280;53294;47.912;13.526;2023-05-03T05:12:07;96844.69;;;12.28;68.42
66479;BME280;53294;47.912;13.526;2023-05-03T05:14:34;96852.31;;;12.21;69.02
66479;BME280;53294;47.912;13.526;2023-05-03T05:17:01;96856.75;;;12.12;69.44
66479;BME280;53294;47.912;13.526;2023-05-03T05:19:27;96854.59;;;12.14;69.40
66479;BME280;53294;47.912;13.526;2023-05-03T05:21:54;96855.00;;;12.21;69.10
66479;BME280;53294;47.912;13.526;2023-05-03T05:24:21;96858.56;;;12.16;69.36
66479;BME280;53294;47.912;13.526;2023-05-03T05:26:48;96849.63;;;12.21;69.21
66479;BME280;53294;47.912;13.526;2023-05-03T05:29:15;96854.34;;;12.10;69.73
66479;BME280;53294;47.912;13.526;2023-05-03T05:31:41;96865.13;;;12.10;69.59
66479;BME280;53294;47.912;13.526;2023-05-03T05:34:08;96856.53;;;12.08;69.68
66479;BME280;53294;47.912;13.526;2023-05-03T05:36:35;96863.75;;;12.13;69.30
66479;BME280;53294;47.912;13.526;2023-05-03T05:39:02;96856.53;;;12.08;69.35
66479;BME280;53294;47.912;13.526;2023-05-03T05:41:29;96869.72;;;12.10;69.28
66479;BME280;53294;47.912;13.526;2023-05-03T05:43:57;96869.63;;;11.91;70.16
66479;BME280;53294;47.912;13.526;2023-05-03T05:46:24;96864.06;;;11.82;70.66
66479;BME280;53294;47.912;13.526;2023-05-03T05:48:51;96878.44;;;12.01;69.73
66479;BME280;53294;47.912;13.526;2023-05-03T05:51:17;96868.06;;;12.14;69.16
66479;BME280;53294;47.912;13.526;2023-05-03T05:53:45;96874.41;;;12.23;68.84
66479;BME280;53294;47.912;13.526;2023-05-03T05:56:12;96877.47;;;12.35;68.53
66479;BME280;53294;47.912;13.526;2023-05-03T05:58:38;96873.66;;;12.36;68.40
66479;BME280;53294;47.912;13.526;2023-05-03T06:01:05;96876.91;;;12.38;68.39
66479;BME280;53294;47.912;13.526;2023-05-03T06:03:33;96868.25;;;12.42;68.49
66479;BME280;53294;47.912;13.526;2023-05-03T06:06:00;96875.16;;;12.48;68.26
66479;BME280;53294;47.912;13.526;2023-05-03T06:08:27;96877.03;;;12.28;69.08
66479;BME280;53294;47.912;13.526;2023-05-03T06:10:54;96881.25;;;12.34;68.85
66479;BME280;53294;47.912;13.526;2023-05-03T06:13:21;96885.69;;;12.25;69.33
66479;BME280;53294;47.912;13.526;2023-05-03T06:15:47;96877.78;;;12.34;69.13
66479;BME280;53294;47.912;13.526;2023-05-03T06:18:14;96888.25;;;12.35;68.92
66479;BME280;53294;47.912;13.526;2023-05-03T06:20:41;96890.09;;;12.40;68.82
66479;BME280;53294;47.912;13.526;2023-05-03T06:23:08;96881.84;;;12.31;69.18
66479;BME280;53294;47.912;13.526;2023-05-03T06:25:34;96888.09;;;12.46;68.37
66479;BME280;53294;47.912;13.526;2023-05-03T06:28:04;96886.84;;;12.19;69.81
66479;BME280;53294;47.912;13.526;2023-05-03T06:30:31;96891.69;;;11.98;70.61
66479;BME280;53294;47.912;13.526;2023-05-03T06:32:57;96894.13;;;11.94;70.79
66479;BME280;53294;47.912;13.526;2023-05-03T06:35:24;96899.06;;;11.82;71.66
66479;BME280;53294;47.912;13.526;2023-05-03T06:37:51;96894.13;;;11.94;70.76
66479;BME280;53294;47.912;13.526;2023-05-03T06:40:18;96904.78;;;12.05;70.34
66479;BME280;53294;47.912;13.526;2023-05-03T06:42:45;96897.91;;;11.93;70.93
66479;BME280;53294;47.912;13.526;2023-05-03T06:45:11;96900.63;;;11.88;71.13
66479;BME280;53294;47.912;13.526;2023-05-03T06:47:38;96902.44;;;11.68;71.95
66479;BME280;53294;47.912;13.526;2023-05-03T06:50:08;96906.69;;;11.75;71.77
66479;BME280;53294;47.912;13.526;2023-05-03T06:52:36;96902.72;;;11.91;71.01
66479;BME280;53294;47.912;13.526;2023-05-03T06:55:03;96908.25;;;12.05;70.56
66479;BME280;53294;47.912;13.526;2023-05-03T06:57:30;96910.59;;;11.88;71.11
66479;BME280;53294;47.912;13.526;2023-05-03T06:59:57;96909.53;;;11.83;71.63
66479;BME280;53294;47.912;13.526;2023-05-03T07:02:24;96912.84;;;12.05;70.45
66479;BME280;53294;47.912;13.526;2023-05-03T07:04:52;96910.59;;;12.12;70.07
66479;BME280;53294;47.912;13.526;2023-05-03T07:07:19;96902.34;;;12.27;69.56
66479;BME280;53294;47.912;13.526;2023-05-03T07:09:46;96910.28;;;12.18;70.14
66479;BME280;53294;47.912;13.526;2023-05-03T07:12:12;96904.31;;;12.21;69.93
66479;BME280;53294;47.912;13.526;2023-05-03T07:14:39;96897.50;;;12.29;69.53
66479;BME280;53294;47.912;13.526;2023-05-03T07:17:06;96903.38;;;12.31;69.54
66479;BME280;53294;47.912;13.526;2023-05-03T07:19:32;96901.38;;;12.18;70.27
66479;BME280;53294;47.912;13.526;2023-05-03T07:21:59;96894.34;;;12.22;69.91
66479;BME280;53294;47.912;13.526;2023-05-03T07:24:28;96899.75;;;11.98;71.88
66479;BME280;53294;47.912;13.526;2023-05-03T07:26:55;96896.13;;;12.08;71.33
66479;BME280;53294;47.912;13.526;2023-05-03T07:29:23;96897.22;;;12.07;71.43
66479;BME280;53294;47.912;13.526;2023-05-03T07:31:50;96894.44;;;12.12;71.57
66479;BME280;53294;47.912;13.526;2023-05-03T07:34:19;96897.34;;;12.39;70.24
66479;BME280;53294;47.912;13.526;2023-05-03T07:36:46;96895.56;;;12.54;69.66
66479;BME280;53294;47.912;13.526;2023-05-03T07:39:12;96896.91;;;12.32;70.78
66479;BME280;53294;47.912;13.526;2023-05-03T07:41:39;96895.94;;;12.23;71.47
66479;BME280;53294;47.912;13.526;2023-05-03T07:44:06;96898.97;;;12.16;71.74
66479;BME280;53294;47.912;13.526;2023-05-03T07:46:33;96898.25;;;12.11;72.56
66479;BME280;53294;47.912;13.526;2023-05-03T07:49:02;96896.13;;;12.08;72.56
66479;BME280;53294;47.912;13.526;2023-05-03T07:51:30;96892.78;;;11.92;72.96
66479;BME280;53294;47.912;13.526;2023-05-03T07:54:00;96899.91;;;11.77;73.08
66479;BME280;53294;47.912;13.526;2023-05-03T07:56:27;96901.41;;;11.64;73.43
66479;BME280;53294;47.912;13.526;2023-05-03T07:58:54;96905.66;;;11.71;73.24
66479;BME280;53294;47.912;13.526;2023-05-03T08:01:34;96901.59;;;11.73;72.83
66479;BME280;53294;47.912;13.526;2023-05-03T08:04:00;96894.03;;;11.46;73.74
66479;BME280;53294;47.912;13.526;2023-05-03T08:06:27;96904.84;;;11.41;73.49
66479;BME280;53294;47.912;13.526;2023-05-03T08:08:54;96907.63;;;11.30;73.97
66479;BME280;53294;47.912;13.526;2023-05-03T08:11:21;96903.28;;;11.35;73.76
66479;BME280;53294;47.912;13.526;2023-05-03T08:13:48;96902.84;;;11.22;73.55
66479;BME280;53294;47.912;13.526;2023-05-03T08:16:15;96903.28;;;11.35;73.08
66479;BME280;53294;47.912;13.526;2023-05-03T08:18:42;96914.66;;;11.26;73.67
66479;BME280;53294;47.912;13.526;2023-05-03T08:21:09;96901.06;;;11.42;72.86
66479;BME280;53294;47.912;13.526;2023-05-03T08:23:38;96914.19;;;11.48;72.73
66479;BME280;53294;47.912;13.526;2023-05-03T08:26:05;96909.28;;;11.56;72.48
66479;BME280;53294;47.912;13.526;2023-05-03T08:28:33;96913.94;;;11.45;72.50
66479;BME280;53294;47.912;13.526;2023-05-03T08:30:59;96915.00;;;11.49;72.70
66479;BME280;53294;47.912;13.526;2023-05-03T08:33:29;96918.31;;;11.41;72.87
66479;BME280;53294;47.912;13.526;2023-05-03T08:35:56;96918.03;;;11.37;72.97
66479;BME280;53294;47.912;13.526;2023-05-03T08:38:23;96920.78;;;11.32;72.97
66479;BME280;53294;47.912;13.526;2023-05-03T08:40:50;96918.44;;;11.55;72.45
66479;BME280;53294;47.912;13.526;2023-05-03T08:43:19;96926.09;;;11.42;72.90
66479;BME280;53294;47.912;13.526;2023-05-03T08:45:49;96926.03;;;11.47;72.99
66479;BME280;53294;47.912;13.526;2023-05-03T08:48:17;96930.00;;;11.55;72.64
66479;BME280;53294;47.912;13.526;2023-05-03T08:50:44;96926.81;;;11.53;72.84
66479;BME280;53294;47.912;13.526;2023-05-03T08:53:10;96935.88;;;11.62;72.63
66479;BME280;53294;47.912;13.526;2023-05-03T08:55:37;96936.22;;;11.50;73.27
66479;BME280;53294;47.912;13.526;2023-05-03T08:58:07;96929.91;;;11.65;72.84
66479;BME280;53294;47.912;13.526;2023-05-03T09:00:36;96919.03;;;11.76;72.63
66479;BME280;53294;47.912;13.526;2023-05-03T09:03:03;96926.44;;;11.89;71.89
66479;BME280;53294;47.912;13.526;2023-05-03T09:05:32;96930.22;;;11.64;72.65
66479;BME280;53294;47.912;13.526;2023-05-03T09:10:36;96934.25;;;11.61;72.56
66479;BME280;53294;47.912;13.526;2023-05-03T09:13:03;96938.50;;;11.67;72.13
66479;BME280;53294;47.912;13.526;2023-05-03T09:15:30;96940.44;;;11.62;72.40
66479;BME280;53294;47.912;13.526;2023-05-03T09:18:16;96944.31;;;11.50;72.52
66479;BME280;53294;47.912;13.526;2023-05-03T09:20:45;96947.75;;;11.56;72.76
66479;BME280;53294;47.912;13.526;2023-05-03T09:23:28;96940.19;;;11.58;72.67
66479;BME280;53294;47.912;13.526;2023-05-03T09:25:58;96939.81;;;11.41;73.46
66479;BME280;53294;47.912;13.526;2023-05-03T09:28:25;96939.88;;;11.65;73.14
66479;BME280;53294;47.912;13.526;2023-05-03T09:31:04;96938.16;;;11.74;73.01
66479;BME280;53294;47.912;13.526;2023-05-03T09:33:32;96936.28;;;11.75;73.85
66479;BME280;53294;47.912;13.526;2023-05-03T09:36:03;96935.19;;;12.05;73.02
66479;BME280;53294;47.912;13.526;2023-05-03T09:38:33;96938.38;;;12.07;72.63
66479;BME280;53294;47.912;13.526;2023-05-03T09:41:00;96937.09;;;12.05;73.28
66479;BME280;53294;47.912;13.526;2023-05-03T09:43:27;96929.31;;;12.03;73.01
66479;BME280;53294;47.912;13.526;2023-05-03T09:46:07;96928.66;;;12.11;72.65
66479;BME280;53294;47.912;13.526;2023-05-03T09:48:35;96926.91;;;12.01;72.73
66479;BME280;53294;47.912;13.526;2023-05-03T09:51:03;96932.25;;;12.26;72.24
66479;BME280;53294;47.912;13.526;2023-05-03T09:53:34;96926.53;;;12.32;72.04
66479;BME280;53294;47.912;13.526;2023-05-03T09:56:02;96921.16;;;12.32;72.18
66479;BME280;53294;47.912;13.526;2023-05-03T09:58:29;96917.81;;;12.41;72.29
66479;BME280;53294;47.912;13.526;2023-05-03T10:01:00;96921.94;;;12.33;71.51
66479;BME280;53294;47.912;13.526;2023-05-03T10:05:57;96915.22;;;12.73;71.96
66479;BME280;53294;47.912;13.526;2023-05-03T10:08:32;96910.69;;;12.88;71.52
66479;BME280;53294;47.912;13.526;2023-05-03T10:11:03;96903.66;;;13.25;71.25
66479;BME280;53294;47.912;13.526;2023-05-03T10:13:34;96907.25;;;13.39;70.82
66479;BME280;53294;47.912;13.526;2023-05-03T10:16:05;96914.16;;;13.59;70.28
66479;BME280;53294;47.912;13.526;2023-05-03T10:18:33;96909.41;;;13.70;70.84
66479;BME280;53294;47.912;13.526;2023-05-03T10:21:07;96900.41;;;13.89;69.49
66479;BME280;53294;47.912;13.526;2023-05-03T10:23:35;96903.06;;;14.22;69.38
66479;BME280;53294;47.912;13.526;2023-05-03T10:28:32;96881.59;;;14.67;67.54
66479;BME280;53294;47.912;13.526;2023-05-03T10:30:59;96878.91;;;14.89;68.37
66479;BME280;53294;47.912;13.526;2023-05-03T10:33:33;96887.91;;;15.21;66.18
66479;BME280;53294;47.912;13.526;2023-05-03T10:36:06;96886.28;;;15.20;64.89
66479;BME280;53294;47.912;13.526;2023-05-03T10:38:36;96884.38;;;15.21;66.03
66479;BME280;53294;47.912;13.526;2023-05-03T10:41:03;96878.34;;;15.24;66.45
66479;BME280;53294;47.912;13.526;2023-05-03T10:46:02;96876.31;;;15.30;65.60
66479;BME280;53294;47.912;13.526;2023-05-03T10:48:31;96882.91;;;15.37;65.49
66479;BME280;53294;47.912;13.526;2023-05-03T10:53:54;96890.19;;;14.55;64.76
66479;BME280;53294;47.912;13.526;2023-05-03T10:56:21;96888.22;;;14.61;64.49
66479;BME280;53294;47.912;13.526;2023-05-03T10:58:48;96872.91;;;14.42;65.96
66479;BME280;53294;47.912;13.526;2023-05-03T11:01:17;96881.22;;;14.32;65.97
66479;BME280;53294;47.912;13.526;2023-05-03T11:04:03;96883.44;;;14.02;66.72
66479;BME280;53294;47.912;13.526;2023-05-03T11:09:03;96878.81;;;14.16;66.89
66479;BME280;53294;47.912;13.526;2023-05-03T11:11:32;96872.00;;;14.47;67.63
66479;BME280;53294;47.912;13.526;2023-05-03T11:13:59;96867.19;;;14.44;65.51
66479;BME280;53294;47.912;13.526;2023-05-03T11:16:26;96871.59;;;14.90;65.31
66479;BME280;53294;47.912;13.526;2023-05-03T11:18:53;96863.97;;;15.15;64.97
66479;BME280;53294;47.912;13.526;2023-05-03T11:21:21;96858.72;;;15.41;65.50
66479;BME280;53294;47.912;13.526;2023-05-03T11:23:48;96856.66;;;15.69;64.45
66479;BME280;53294;47.912;13.526;2023-05-03T11:26:15;96859.78;;;15.62;63.16
66479;BME280;53294;47.912;13.526;2023-05-03T11:28:42;96860.25;;;15.87;63.38
66479;BME280;53294;47.912;13.526;2023-05-03T11:31:11;96864.56;;;15.88;61.99
66479;BME280;53294;47.912;13.526;2023-05-03T11:33:39;96862.63;;;15.80;62.18
66479;BME280;53294;47.912;13.526;2023-05-03T11:36:07;96862.72;;;16.15;62.56
66479;BME280;53294;47.912;13.526;2023-05-03T11:38:37;96857.72;;;16.66;62.04
66479;BME280;53294;47.912;13.526;2023-05-03T11:41:12;96852.31;;;17.10;59.50
66479;BME280;53294;47.912;13.526;2023-05-03T11:43:43;96854.56;;;17.08;59.55
66479;BME280;53294;47.912;13.526;2023-05-03T11:46:12;96858.81;;;17.91;57.52
66479;BME280;53294;47.912;13.526;2023-05-03T11:48:42;96844.22;;;18.34;55.49
66479;BME280;53294;47.912;13.526;2023-05-03T11:51:10;96840.53;;;18.60;55.43
66479;BME280;53294;47.912;13.526;2023-05-03T11:53:38;96843.28;;;19.02;53.63
66479;BME280;53294;47.912;13.526;2023-05-03T11:56:08;96843.06;;;19.07;53.84
66479;BME280;53294;47.912;13.526;2023-05-03T11:58:51;96835.25;;;19.51;52.45
66479;BME280;53294;47.912;13.526;2023-05-03T12:01:19;96840.94;;;19.59;50.31
66479;BME280;53294;47.912;13.526;2023-05-03T12:03:53;96839.56;;;19.65;50.95
66479;BME280;53294;47.912;13.526;2023-05-03T12:06:21;96831.69;;;19.38;50.78
66479;BME280;53294;47.912;13.526;2023-05-03T12:08:49;96836.25;;;19.59;50.28
66479;BME280;53294;47.912;13.526;2023-05-03T12:11:17;96824.19;;;20.06;49.93
66479;BME280;53294;47.912;13.526;2023-05-03T12:13:55;96825.53;;;19.75;50.23
66479;BME280;53294;47.912;13.526;2023-05-03T12:16:24;96826.25;;;19.84;51.04
66479;BME280;53294;47.912;13.526;2023-05-03T12:18:52;96823.84;;;19.83;49.68
66479;BME280;53294;47.912;13.526;2023-05-03T12:21:23;96810.66;;;20.22;50.93
66479;BME280;53294;47.912;13.526;2023-05-03T12:23:53;96821.72;;;20.54;49.22
66479;BME280;53294;47.912;13.526;2023-05-03T12:26:22;96817.34;;;19.75;48.98
66479;BME280;53294;47.912;13.526;2023-05-03T12:28:51;96817.72;;;19.40;48.07
66479;BME280;53294;47.912;13.526;2023-05-03T12:31:22;96816.69;;;19.32;46.59
66479;BME280;53294;47.912;13.526;2023-05-03T12:33:49;96814.72;;;18.66;48.47
66479;BME280;53294;47.912;13.526;2023-05-03T12:36:36;96817.56;;;18.48;49.09
66479;BME280;53294;47.912;13.526;2023-05-03T12:39:04;96809.63;;;19.19;51.40
66479;BME280;53294;47.912;13.526;2023-05-03T12:41:35;96808.97;;;20.05;49.05
66479;BME280;53294;47.912;13.526;2023-05-03T12:44:04;96799.03;;;20.50;46.66
66479;BME280;53294;47.912;13.526;2023-05-03T12:46:36;96787.38;;;20.77;45.99
66479;BME280;53294;47.912;13.526;2023-05-03T12:49:04;96789.19;;;21.02;48.43
66479;BME280;53294;47.912;13.526;2023-05-03T12:51:34;96778.75;;;21.04;48.75
66479;BME280;53294;47.912;13.526;2023-05-03T12:54:01;96775.34;;;21.39;46.92
66479;BME280;53294;47.912;13.526;2023-05-03T12:56:29;96768.91;;;21.31;47.69
66479;BME280;53294;47.912;13.526;2023-05-03T12:58:58;96770.50;;;21.32;45.22
66479;BME280;53294;47.912;13.526;2023-05-03T13:01:45;96773.44;;;21.55;46.54
66479;BME280;53294;47.912;13.526;2023-05-03T13:04:32;96769.13;;;21.54;45.61
66479;BME280;53294;47.912;13.526;2023-05-03T13:07:19;96759.13;;;21.78;45.84
66479;BME280;53294;47.912;13.526;2023-05-03T13:09:55;96759.63;;;21.99;45.09
66479;BME280;53294;47.912;13.526;2023-05-03T13:12:25;96754.00;;;21.92;45.05
66479;BME280;53294;47.912;13.526;2023-05-03T13:14:53;96753.94;;;21.88;42.10
66479;BME280;53294;47.912;13.526;2023-05-03T13:17:22;96755.78;;;22.00;44.52
66479;BME280;53294;47.912;13.526;2023-05-03T13:19:49;96749.72;;;22.11;44.30